Time;durP1;ratioP1;P1;durP2;ratioP2;P2;SDS_P1;SDS_P2;PMS_P1;PMS_P2;Temp;Humidity;BMP_temperature;BMP_pressure;BME280_temperature;BME280_humidity;BME280_pressure;Samples;Min_cycle;Max_cycle;Signal;HPM_P1;HPM_P2
2023/04/15 00:02:20;;;;;;;1999.90;999.90;;;;;;;6.06;100.00;93065.72;5011333;28;20205;-62
2023/04/15 00:04:46;;;;;;;1999.90;999.90;;;;;;;6.08;100.00;93067.97;5011362;28;20393;-63
2023/04/15 00:07:12;;;;;;;1999.90;999.90;;;;;;;6.05;100.00;93063.44;5011343;28;20226;-64
2023/04/15 00:09:38;;;;;;;1999.90;999.90;;;;;;;6.00;100.00;93051.19;5011487;28;20556;-65
2023/04/15 00:12:04;;;;;;;1999.90;999.90;;;;;;;6.03;100.00;93053.03;5011577;28;20228;-65
2023/04/15 00:14:30;;;;;;;1999.90;999.90;;;;;;;6.04;100.00;93056.50;5011561;28;20312;-65
2023/04/15 00:16:56;;;;;;;1999.90;999.90;;;;;;;6.06;100.00;93054.13;5011684;28;20436;-66
2023/04/15 00:19:22;;;;;;;1999.90;999.90;;;;;;;6.00;100.00;93048.47;5011428;28;20214;-66
2023/04/15 00:21:47;;;;;;;1999.90;999.90;;;;;;;6.03;100.00;93049.56;5011289;28;20200;-65
2023/04/15 00:24:12;;;;;;;1999.90;999.90;;;;;;;6.04;100.00;93053.78;5011034;28;20213;-66
2023/04/15 00:26:38;;;;;;;1999.90;999.90;;;;;;;6.05;100.00;93052.59;5011092;28;20220;-64
2023/04/15 00:29:03;;;;;;;1999.90;999.90;;;;;;;6.06;100.00;93043.28;5010860;28;20247;-64
2023/04/15 00:31:30;;;;;;;1999.90;999.90;;;;;;;6.05;100.00;93039.81;5010903;28;20198;-63
2023/04/15 00:33:55;;;;;;;1999.90;999.90;;;;;;;6.09;100.00;93047.84;5010676;28;20286;-63
2023/04/15 00:36:22;;;;;;;1999.90;999.90;;;;;;;6.09;100.00;93037.00;5010640;28;20198;-64
2023/04/15 00:38:47;;;;;;;1999.90;999.90;;;;;;;6.06;100.00;93043.28;5010850;28;20204;-63
2023/04/15 00:41:13;;;;;;;1999.90;999.90;;;;;;;6.03;100.00;93034.06;5010842;28;20267;-63
2023/04/15 00:43:38;;;;;;;1999.90;999.90;;;;;;;6.04;100.00;93034.81;5011107;28;20209;-63
2023/04/15 00:46:05;;;;;;;1999.90;999.90;;;;;;;6.05;100.00;93030.94;5010705;28;20224;-63
2023/04/15 00:48:31;;;;;;;1999.90;999.90;;;;;;;6.07;100.00;93020.41;5010212;28;20240;-62
2023/04/15 00:50:56;;;;;;;1999.90;999.90;;;;;;;6.03;100.00;93025.94;5010795;28;20224;-63
2023/04/15 00:53:22;;;;;;;1999.90;999.90;;;;;;;6.07;100.00;93033.97;5010286;28;20224;-63
2023/04/15 00:55:48;;;;;;;1999.90;999.90;;;;;;;6.12;100.00;93033.44;5010725;28;20201;-62
2023/04/15 00:58:14;;;;;;;1999.90;999.90;;;;;;;6.12;100.00;93030.72;5010779;28;20196;-63
2023/04/15 01:00:40;;;;;;;1999.90;999.90;;;;;;;6.14;100.00;93036.47;5010303;28;20274;-63
2023/04/15 01:03:05;;;;;;;1999.90;999.90;;;;;;;6.14;100.00;93034.53;5009615;28;20273;-63
2023/04/15 01:05:31;;;;;;;1999.90;999.90;;;;;;;6.13;100.00;93038.41;5010400;28;20197;-63
2023/04/15 01:07:57;;;;;;;1999.90;999.90;;;;;;;6.13;100.00;93048.50;5010226;28;20190;-63
2023/04/15 01:10:22;;;;;;;1999.90;999.90;;;;;;;6.10;100.00;93050.13;5010123;28;20190;-63
2023/04/15 01:12:48;;;;;;;1999.90;999.90;;;;;;;6.11;100.00;93045.44;5009848;28;20321;-63
2023/04/15 01:15:14;;;;;;;1999.90;999.90;;;;;;;6.07;100.00;93055.63;5010494;28;20243;-63
2023/04/15 01:17:40;;;;;;;1999.90;999.90;;;;;;;6.05;100.00;93058.78;5010370;28;20236;-63
2023/04/15 01:20:09;;;;;;;1999.90;999.90;;;;;;;6.04;100.00;93057.25;5009911;28;20200;-63
2023/04/15 01:22:35;;;;;;;1999.90;999.90;;;;;;;5.98;100.00;93053.56;5010355;28;20201;-63
2023/04/15 01:25:08;;;;;;;1999.90;999.90;;;;;;;5.99;100.00;93054.31;5009773;28;20450;-63
2023/04/15 01:27:35;;;;;;;1999.90;999.90;;;;;;;6.02;100.00;93048.03;5009692;28;20201;-63
2023/04/15 01:30:01;;;;;;;1999.90;999.90;;;;;;;6.03;100.00;93052.28;5009923;28;20198;-63
2023/04/15 01:32:26;;;;;;;1999.90;999.90;;;;;;;6.04;100.00;93046.41;5009849;28;20236;-63
2023/04/15 01:34:52;;;;;;;1999.90;999.90;;;;;;;6.05;100.00;93052.59;5009666;28;20198;-62
2023/04/15 01:37:17;;;;;;;1999.90;999.90;;;;;;;6.06;100.00;93056.81;5009618;28;20196;-62
2023/04/15 01:39:43;;;;;;;1999.90;999.90;;;;;;;6.04;100.00;93059.19;5010071;28;20292;-62
2023/04/15 01:42:08;;;;;;;1999.90;999.90;;;;;;;6.03;100.00;93057.69;5010079;28;20377;-62
2023/04/15 01:44:34;;;;;;;1999.90;999.90;;;;;;;5.99;100.00;93057.03;5009954;28;20235;-62
2023/04/15 01:46:59;;;;;;;1999.90;999.90;;;;;;;6.00;100.00;93067.44;5010073;28;20202;-62
2023/04/15 01:49:25;;;;;;;1999.90;999.90;;;;;;;6.00;100.00;93055.84;5009446;28;20212;-62
2023/04/15 01:51:50;;;;;;;1999.90;999.90;;;;;;;6.02;100.00;93058.88;5009719;28;20209;-62
2023/04/15 01:54:15;;;;;;;1999.90;999.90;;;;;;;5.99;100.00;93059.75;5009435;28;20316;-62
2023/04/15 01:56:41;;;;;;;1999.90;999.90;;;;;;;5.98;100.00;93066.34;5009662;28;20204;-62
2023/04/15 01:59:06;;;;;;;1999.90;999.90;;;;;;;5.97;100.00;93062.09;5009448;28;20201;-62
2023/04/15 02:01:32;;;;;;;1999.90;999.90;;;;;;;5.96;100.00;93066.00;5009156;28;20202;-62
2023/04/15 02:03:57;;;;;;;1999.90;999.90;;;;;;;5.96;100.00;93061.38;5009055;28;20226;-61
2023/04/15 02:06:23;;;;;;;1999.90;999.90;;;;;;;5.96;100.00;93066.00;5009052;28;20232;-62
2023/04/15 02:08:48;;;;;;;1999.90;999.90;;;;;;;5.96;100.00;93060.59;5008953;28;20206;-62
2023/04/15 02:11:14;;;;;;;1999.90;999.90;;;;;;;5.95;100.00;93067.22;5009088;28;20383;-62
2023/04/15 02:13:39;;;;;;;1999.90;999.90;;;;;;;5.96;100.00;93060.59;5008636;28;20208;-62
2023/04/15 02:16:15;;;;;;;1999.90;999.90;;;;;;;5.95;100.00;93059.09;5009323;28;20202;-62
2023/04/15 02:18:40;;;;;;;1999.90;999.90;;;;;;;5.95;100.00;93072.63;5009350;28;20199;-61
2023/04/15 02:21:06;;;;;;;1999.90;999.90;;;;;;;5.94;100.00;93068.41;5009271;28;20202;-61
2023/04/15 02:23:31;;;;;;;1999.90;999.90;;;;;;;5.91;100.00;93069.25;5008717;28;20209;-62
2023/04/15 02:25:56;;;;;;;1999.90;999.90;;;;;;;5.91;100.00;93075.41;5008982;28;20240;-61
2023/04/15 02:28:22;;;;;;;1999.90;999.90;;;;;;;5.93;100.00;93069.56;5008674;28;20204;-64
2023/04/15 02:30:51;;;;;;;1999.90;999.90;;;;;;;5.91;100.00;93067.28;5008750;28;20395;-63
2023/04/15 02:33:16;;;;;;;1999.90;999.90;;;;;;;5.92;100.00;93070.78;5008350;28;20505;-62
2023/04/15 02:35:44;;;;;;;1999.90;999.90;;;;;;;5.91;100.00;93071.97;5008593;28;20201;-63
2023/04/15 02:38:10;;;;;;;1999.90;999.90;;;;;;;5.90;100.00;93073.16;5008525;28;20271;-64
2023/04/15 02:40:36;;;;;;;1999.90;999.90;;;;;;;5.89;100.00;93066.97;5008849;28;20240;-63
2023/04/15 02:43:01;;;;;;;1999.90;999.90;;;;;;;5.88;100.00;93075.53;5008411;28;20169;-63
2023/04/15 02:45:27;;;;;;;1999.90;999.90;;;;;;;5.89;100.00;93077.03;5008908;28;20203;-63
2023/04/15 02:47:53;;;;;;;1999.90;999.90;;;;;;;5.90;100.00;93089.41;5008367;28;20216;-63
2023/04/15 02:50:19;;;;;;;1999.90;999.90;;;;;;;5.93;100.00;93088.53;5009012;28;20512;-63
2023/04/15 02:52:45;;;;;;;1999.90;999.90;;;;;;;5.94;100.00;93082.69;5008033;28;20224;-63
2023/04/15 02:55:11;;;;;;;1999.90;999.90;;;;;;;5.97;100.00;93083.78;5008186;28;20212;-63
2023/04/15 02:57:38;;;;;;;1999.90;999.90;;;;;;;6.02;100.00;93091.38;5008798;28;20197;-63
2023/04/15 03:00:05;;;;;;;1999.90;999.90;;;;;;;6.03;100.00;93095.59;5008272;28;20490;-63
2023/04/15 03:02:34;;;;;;;1999.90;999.90;;;;;;;6.02;100.00;93102.97;5008728;28;20221;-62
2023/04/15 03:05:00;;;;;;;1999.90;999.90;;;;;;;6.04;100.00;93111.44;5007942;28;20205;-62
2023/04/15 03:07:25;;;;;;;1999.90;999.90;;;;;;;6.05;100.00;93107.53;5007831;28;20239;-62
2023/04/15 03:09:51;;;;;;;1999.90;999.90;;;;;;;6.05;100.00;93115.66;5007902;28;20209;-62
2023/04/15 03:12:16;;;;;;;1999.90;999.90;;;;;;;6.05;100.00;93117.63;5008292;28;20362;-63
2023/04/15 03:14:42;;;;;;;1999.90;999.90;;;;;;;6.03;100.00;93125.41;5007938;28;20221;-62
2023/04/15 03:17:07;;;;;;;1999.90;999.90;;;;;;;6.05;100.00;93142.00;5008057;28;20202;-61
2023/04/15 03:19:32;;;;;;;1999.90;999.90;;;;;;;6.02;100.00;93142.84;5008051;28;20201;-61
2023/04/15 03:21:58;;;;;;;1999.90;999.90;;;;;;;6.03;100.00;93155.19;5007739;28;20272;-60
2023/04/15 03:24:23;;;;;;;1999.90;999.90;;;;;;;5.93;100.00;93180.63;5008033;28;20245;-61
2023/04/15 03:26:49;;;;;;;1999.90;999.90;;;;;;;5.99;100.00;93190.53;5007177;28;20198;-60
2023/04/15 03:29:14;;;;;;;1999.90;999.90;;;;;;;5.94;100.00;93209.25;5007874;28;20204;-61
2023/04/15 03:31:40;;;;;;;1999.90;999.90;;;;;;;5.98;100.00;93210.66;5007673;28;20201;-60
2023/04/15 03:34:06;;;;;;;1999.90;999.90;;;;;;;6.02;100.00;93226.81;5007618;28;20271;-60
2023/04/15 03:36:34;;;;;;;1999.90;999.90;;;;;;;6.03;100.00;93229.09;5008403;28;20202;-60
2023/04/15 03:39:00;;;;;;;1999.90;999.90;;;;;;;6.03;100.00;93247.28;5007699;28;20201;-60
2023/04/15 03:41:27;;;;;;;1999.90;999.90;;;;;;;5.99;100.00;93249.34;5007490;28;20181;-61
2023/04/15 03:43:52;;;;;;;1999.90;999.90;;;;;;;5.96;100.00;93261.78;5008087;28;20229;-60
2023/04/15 03:46:18;;;;;;;1999.90;999.90;;;;;;;5.96;100.00;93267.22;5008185;28;20205;-60
2023/04/15 03:48:43;;;;;;;1999.90;999.90;;;;;;;5.96;100.00;93279.97;5007458;28;20208;-62
2023/04/15 03:51:09;;;;;;;1999.90;999.90;;;;;;;5.99;100.00;93288.03;5007417;28;20206;-60
2023/04/15 03:53:34;;;;;;;1999.90;999.90;;;;;;;6.02;100.00;93297.25;5007541;28;20293;-61
2023/04/15 03:56:00;;;;;;;1999.90;999.90;;;;;;;6.05;100.00;93307.25;5007444;28;20387;-61
2023/04/15 03:58:25;;;;;;;1999.90;999.90;;;;;;;6.05;100.00;93307.25;5007482;28;20401;-60
2023/04/15 04:00:51;;;;;;;1999.90;999.90;;;;;;;6.04;100.00;93314.59;5007505;28;20225;-60
2023/04/15 04:03:17;;;;;;;1999.90;999.90;;;;;;;6.02;100.00;93321.63;5007350;28;20204;-60
2023/04/15 04:05:43;;;;;;;1999.90;999.90;;;;;;;5.97;100.00;93327.53;5007220;28;20204;-60
2023/04/15 04:08:09;;;;;;;1999.90;999.90;;;;;;;5.92;100.00;93347.03;5007291;28;20197;-60
2023/04/15 04:10:34;;;;;;;1999.90;999.90;;;;;;;5.94;100.00;93347.38;5007136;28;20301;-60
2023/04/15 04:13:00;;;;;;;1999.90;999.90;;;;;;;5.95;100.00;93348.88;5007704;28;20191;-60
2023/04/15 04:15:26;;;;;;;1999.90;999.90;;;;;;;5.97;100.00;93343.78;5007681;28;20265;-59
2023/04/15 04:17:51;;;;;;;1999.90;999.90;;;;;;;5.96;100.00;93359.31;5007886;28;20202;-60
2023/04/15 04:20:16;;;;;;;1999.90;999.90;;;;;;;5.92;100.00;93363.28;5007022;28;20202;-59
2023/04/15 04:22:42;;;;;;;1999.90;999.90;;;;;;;5.93;100.00;93364.78;5007271;28;20401;-59
2023/04/15 04:25:08;;;;;;;1999.90;999.90;;;;;;;5.92;100.00;93368.69;5007167;28;20205;-59
2023/04/15 04:27:34;;;;;;;1999.90;999.90;;;;;;;5.93;100.00;93381.03;5007112;28;20204;-60
2023/04/15 04:30:00;;;;;;;1999.90;999.90;;;;;;;5.90;100.00;93392.75;5007114;28;20202;-60
2023/04/15 04:32:26;;;;;;;1999.90;999.90;;;;;;;5.89;100.00;93391.97;5007594;28;20194;-61
2023/04/15 04:34:51;;;;;;;1999.90;999.90;;;;;;;5.82;100.00;93413.78;5007241;28;20214;-59
2023/04/15 04:37:17;;;;;;;1999.90;999.90;;;;;;;5.86;100.00;93425.31;5008497;28;20193;-59
2023/04/15 04:39:42;;;;;;;1999.90;999.90;;;;;;;5.86;100.00;93427.22;5010976;28;20416;-59
2023/04/15 04:42:08;;;;;;;1999.90;999.90;;;;;;;5.91;100.00;93437.59;5010575;28;20204;-60
2023/04/15 04:44:33;;;;;;;1999.90;999.90;;;;;;;5.77;100.00;93454.13;5010666;28;20204;-60
2023/04/15 04:46:59;;;;;;;1999.90;999.90;;;;;;;5.81;100.00;93473.78;5011268;28;20202;-59
2023/04/15 04:49:24;;;;;;;1999.90;999.90;;;;;;;5.88;100.00;93476.34;5010564;28;20206;-59
2023/04/15 04:51:50;;;;;;;1999.90;999.90;;;;;;;5.89;100.00;93494.88;5010945;28;20226;-59
2023/04/15 04:54:16;;;;;;;1999.90;999.90;;;;;;;5.90;100.00;93517.31;5010513;28;20257;-59
2023/04/15 04:56:41;;;;;;;1999.90;999.90;;;;;;;5.94;100.00;93528.84;5010606;28;20219;-59
2023/04/15 04:59:07;;;;;;;1999.90;999.90;;;;;;;5.96;100.00;93548.13;5010386;28;20205;-59
2023/04/15 05:01:32;;;;;;;1999.90;999.90;;;;;;;6.00;100.00;93559.66;5010516;28;20198;-59
2023/04/15 05:03:58;;;;;;;1999.90;999.90;;;;;;;6.05;100.00;93567.31;5010297;28;20260;-59
2023/04/15 05:06:24;;;;;;;1999.90;999.90;;;;;;;6.05;100.00;93588.97;5010930;28;20201;-58
2023/04/15 05:08:49;;;;;;;1999.90;999.90;;;;;;;6.07;100.00;93592.03;5010782;28;20198;-59
2023/04/15 05:11:15;;;;;;;1999.90;999.90;;;;;;;6.08;100.00;93607.84;5010547;28;20336;-60
2023/04/15 05:13:40;;;;;;;1999.90;999.90;;;;;;;6.07;100.00;93619.09;5010373;28;20240;-58
2023/04/15 05:16:06;;;;;;;1999.90;999.90;;;;;;;6.09;100.00;93622.19;5010578;28;20237;-58
2023/04/15 05:18:31;;;;;;;1999.90;999.90;;;;;;;6.09;100.00;93638.44;5010687;28;20204;-59
2023/04/15 05:20:57;;;;;;;1999.90;999.90;;;;;;;6.06;100.00;93633.84;5010429;28;20212;-58
2023/04/15 05:23:23;;;;;;;1999.90;999.90;;;;;;;6.07;100.00;93657.03;5009938;28;20198;-59
2023/04/15 05:25:48;;;;;;;1999.90;999.90;;;;;;;6.11;100.00;93657.72;5009931;28;20354;-59
2023/04/15 05:28:13;;;;;;;1999.90;999.90;;;;;;;6.12;100.00;93686.38;5010294;28;20226;-59
2023/04/15 05:30:39;;;;;;;1999.90;999.90;;;;;;;6.10;100.00;93691.44;5009950;28;20269;-59
2023/04/15 05:33:04;;;;;;;1999.90;999.90;;;;;;;6.17;100.00;93721.09;5009858;28;20214;-58
2023/04/15 05:35:30;;;;;;;1999.90;999.90;;;;;;;6.21;100.00;93732.63;5009784;28;20198;-59
2023/04/15 05:37:55;;;;;;;1999.90;999.90;;;;;;;6.16;100.00;93757.53;5009961;28;20190;-59
2023/04/15 05:40:21;;;;;;;1999.90;999.90;;;;;;;6.24;100.00;93775.91;5009842;28;20217;-60
2023/04/15 05:42:46;;;;;;;1999.90;999.90;;;;;;;6.25;100.00;93820.84;5010114;28;20263;-61
2023/04/15 05:45:12;;;;;;;1999.90;999.90;;;;;;;6.29;100.00;93831.59;5009493;28;20192;-60
2023/04/15 05:47:37;;;;;;;1999.90;999.90;;;;;;;6.27;100.00;93844.81;5010059;28;20206;-59
2023/04/15 05:50:03;;;;;;;1999.90;999.90;;;;;;;6.25;100.00;93879.69;5009411;28;20218;-59
2023/04/15 05:52:30;;;;;;;1999.90;999.90;;;;;;;6.33;100.00;93900.84;5009373;28;20276;-59
2023/04/15 05:54:55;;;;;;;1999.90;999.90;;;;;;;6.35;100.00;93922.13;5009349;28;20214;-59
2023/04/15 05:57:20;;;;;;;1999.90;999.90;;;;;;;6.34;100.00;93947.69;5009335;28;20217;-59
2023/04/15 05:59:46;;;;;;;1999.90;999.90;;;;;;;6.43;100.00;93973.09;5009217;28;20196;-59
2023/04/15 06:02:12;;;;;;;1999.90;999.90;;;;;;;6.46;100.00;94006.75;5009438;28;20198;-59
2023/04/15 06:04:38;;;;;;;1999.90;999.90;;;;;;;6.49;100.00;94014.06;5009110;28;20506;-58
2023/04/15 06:07:03;;;;;;;1999.90;999.90;;;;;;;6.54;100.00;94040.72;5009296;28;20205;-58
2023/04/15 06:09:29;;;;;;;1999.90;999.90;;;;;;;6.55;100.00;94053.09;5009291;28;20198;-59
2023/04/15 06:11:55;;;;;;;1999.90;999.90;;;;;;;6.64;100.00;94056.06;5009098;28;20245;-59
2023/04/15 06:14:21;;;;;;;1999.90;999.90;;;;;;;6.64;100.00;94072.34;5008764;28;20544;-60
2023/04/15 06:16:46;;;;;;;1999.90;999.90;;;;;;;6.72;100.00;94073.75;5009422;28;20182;-61
2023/04/15 06:19:13;;;;;;;1999.90;999.90;;;;;;;6.73;100.00;94091.56;5009079;28;20393;-60
2023/04/15 06:21:38;;;;;;;1999.90;999.90;;;;;;;6.85;100.00;94091.75;5009306;28;20259;-60
2023/04/15 06:24:06;;;;;;;1999.90;999.90;;;;;;;6.87;100.00;94094.06;5009337;28;20377;-59
2023/04/15 06:26:32;;;;;;;1999.90;999.90;;;;;;;6.95;100.00;94106.34;5008712;28;20205;-60
2023/04/15 06:28:57;;;;;;;1999.90;999.90;;;;;;;6.98;100.00;94121.81;5009114;28;20214;-60
2023/04/15 06:31:23;;;;;;;1999.90;999.90;;;;;;;7.02;100.00;94121.75;5008843;28;20268;-59
2023/04/15 06:33:48;;;;;;;1999.90;999.90;;;;;;;7.09;100.00;94133.25;5008693;28;20217;-59
2023/04/15 06:36:14;;;;;;;1999.90;999.90;;;;;;;7.09;100.00;94133.25;5008579;28;20221;-61
2023/04/15 06:38:39;;;;;;;1999.90;999.90;;;;;;;7.11;100.00;94141.78;5008756;28;20274;-59
2023/04/15 06:41:05;;;;;;;1999.90;999.90;;;;;;;7.20;100.00;94155.56;5008700;28;20201;-59
2023/04/15 06:43:30;;;;;;;1999.90;999.90;;;;;;;7.31;100.00;94150.75;5008546;28;20382;-58
2023/04/15 06:45:56;;;;;;;1999.90;999.90;;;;;;;7.47;100.00;94152.81;5008027;28;20255;-59
2023/04/15 06:48:22;;;;;;;1999.90;999.90;;;;;;;7.63;100.00;94161.06;5008893;28;20171;-59
2023/04/15 06:50:48;;;;;;;1999.90;999.90;;;;;;;7.84;100.00;94166.94;5008713;28;20266;-59
2023/04/15 06:53:13;;;;;;;1999.90;999.90;;;;;;;8.01;100.00;94176.69;5008053;28;20214;-59
2023/04/15 06:55:40;;;;;;;1999.90;999.90;;;;;;;8.06;100.00;94197.97;5008545;28;20317;-59
2023/04/15 06:58:05;;;;;;;1999.90;999.90;;;;;;;8.18;100.00;94202.00;5008305;28;20199;-59
2023/04/15 07:00:32;;;;;;;1999.90;999.90;;;;;;;8.05;100.00;94220.88;5007881;28;20233;-59
2023/04/15 07:02:59;;;;;;;1999.90;999.90;;;;;;;8.27;100.00;94222.06;5008378;28;20199;-59
2023/04/15 07:05:25;;;;;;;1999.90;999.90;;;;;;;8.37;100.00;94221.09;5008067;28;20195;-59
2023/04/15 07:07:50;;;;;;;1999.90;999.90;;;;;;;8.61;100.00;94230.75;5008422;28;20257;-59
2023/04/15 07:10:16;;;;;;;1999.90;999.90;;;;;;;8.76;100.00;94233.94;5008410;28;20258;-60
2023/04/15 07:12:41;;;;;;;1999.90;999.90;;;;;;;9.01;100.00;94237.72;5008332;28;20388;-59
2023/04/15 07:15:07;;;;;;;1999.90;999.90;;;;;;;9.29;100.00;94242.53;5008105;28;20197;-59
2023/04/15 07:17:33;;;;;;;1999.90;999.90;;;;;;;9.69;100.00;94245.91;5007982;28;20177;-59
2023/04/15 07:19:58;;;;;;;1999.90;999.90;;;;;;;10.13;100.00;94244.47;5008444;28;20204;-60
2023/04/15 07:22:24;;;;;;;1999.90;999.90;;;;;;;10.47;100.00;94252.94;5008160;28;20209;-60
2023/04/15 07:24:49;;;;;;;1999.90;999.90;;;;;;;10.76;100.00;94256.44;5008299;28;20202;-61
2023/04/15 07:27:15;;;;;;;1999.90;999.90;;;;;;;10.91;100.00;94249.38;5007718;28;20194;-60
2023/04/15 07:29:41;;;;;;;1999.90;999.90;;;;;;;10.98;100.00;94254.66;5007828;28;20485;-60
2023/04/15 07:32:06;;;;;;;1999.90;999.90;;;;;;;11.30;100.00;94260.75;5008009;28;20194;-59
2023/04/15 07:34:31;;;;;;;1999.90;999.90;;;;;;;11.49;100.00;94267.19;5007367;28;20217;-60
2023/04/15 07:36:57;;;;;;;1999.90;999.90;;;;;;;11.79;100.00;94269.44;5007506;28;20415;-61
2023/04/15 07:39:22;;;;;;;1999.90;999.90;;;;;;;12.12;100.00;94265.22;5007682;28;20561;-59
2023/04/15 07:41:51;;;;;;;1999.90;999.90;;;;;;;11.93;100.00;94272.50;5007654;28;20191;-60
2023/04/15 07:44:16;;;;;;;1999.90;999.90;;;;;;;11.83;100.00;94270.84;5007762;28;20250;-60
2023/04/15 07:46:41;;;;;;;1999.90;999.90;;;;;;;12.17;100.00;94273.66;5007656;28;20202;-60
2023/04/15 07:49:07;;;;;;;1999.90;999.90;;;;;;;12.47;100.00;94269.56;5008095;28;20163;-60
2023/04/15 07:51:32;;;;;;;1999.90;999.90;;;;;;;12.71;100.00;94273.41;5007880;28;20195;-60
2023/04/15 07:53:58;;;;;;;1999.90;999.90;;;;;;;13.00;100.00;94268.50;5007379;28;20207;-60
2023/04/15 07:56:23;;;;;;;1999.90;999.90;;;;;;;13.31;100.00;94272.06;5007402;28;20199;-58
2023/04/15 07:58:48;;;;;;;1999.90;999.90;;;;;;;13.11;100.00;94271.63;5007681;28;20226;-59
2023/04/15 08:01:14;;;;;;;1999.90;999.90;;;;;;;13.60;100.00;94264.31;5007517;28;20199;-60
2023/04/15 08:03:39;;;;;;;1999.90;999.90;;;;;;;14.93;100.00;94267.09;5007412;28;20211;-60
2023/04/15 08:06:05;;;;;;;1999.90;999.90;;;;;;;15.75;100.00;94262.28;5007417;28;20221;-59
2023/04/15 08:08:30;;;;;;;1999.90;999.90;;;;;;;16.76;100.00;94247.53;5007589;28;20197;-59
2023/04/15 08:10:57;;;;;;;1999.90;999.90;;;;;;;16.51;100.00;94259.03;5007594;28;20183;-59
2023/04/15 08:13:22;;;;;;;1999.90;999.90;;;;;;;16.39;100.00;94264.28;5010178;28;20202;-59
2023/04/15 08:16:16;;;;;;;1999.90;999.90;;;;;;;16.47;100.00;94261.22;5011177;28;20222;-59
2023/04/15 08:18:41;;;;;;;1999.90;999.90;;;;;;;16.40;100.00;94254.78;4997093;28;20202;-59
2023/04/15 08:21:07;;;;;;;1999.90;999.90;;;;;;;16.84;100.00;94248.69;5011381;28;20270;-59
2023/04/15 08:23:33;;;;;;;1999.90;999.90;;;;;;;16.93;96.87;94262.44;5010992;28;20191;-58
2023/04/15 08:25:58;;;;;;;1999.90;999.90;;;;;;;16.60;96.54;94267.25;5010982;28;20194;-59
2023/04/15 08:28:24;;;;;;;1999.90;999.90;;;;;;;16.33;100.00;94268.91;5010883;28;20245;-60
2023/04/15 08:30:49;;;;;;;1999.90;999.90;;;;;;;16.11;100.00;94260.13;5011086;28;20211;-59
2023/04/15 08:33:14;;;;;;;1999.90;999.90;;;;;;;15.20;100.00;94261.59;5010657;28;20237;-59
2023/04/15 08:35:40;;;;;;;1999.90;999.90;;;;;;;14.56;100.00;94268.31;5011251;28;20244;-59
2023/04/15 08:38:05;;;;;;;1999.90;999.90;;;;;;;14.18;100.00;94267.13;5011230;28;20229;-58
2023/04/15 08:40:41;;;;;;;1999.90;999.90;;;;;;;13.99;100.00;94266.28;5011187;28;20270;-60
2023/04/15 08:43:14;;;;;;;1999.90;999.90;;;;;;;13.66;100.00;94270.72;5009924;28;20163;-58
2023/04/15 08:45:40;;;;;;;1999.90;999.90;;;;;;;13.55;100.00;94259.38;5010521;28;20199;-59
2023/04/15 08:48:11;;;;;;;1999.90;999.90;;;;;;;13.32;100.00;94262.63;5010926;28;20195;-58
2023/04/15 08:50:36;;;;;;;1999.90;999.90;;;;;;;13.16;100.00;94258.09;5010634;28;20507;-59
2023/04/15 08:53:02;;;;;;;1999.90;999.90;;;;;;;12.92;100.00;94267.19;5010416;28;20203;-59
2023/04/15 08:55:33;;;;;;;1999.90;999.90;;;;;;;12.89;100.00;94262.59;5010326;28;20202;-58
2023/04/15 08:58:01;;;;;;;1999.90;999.90;;;;;;;12.54;100.00;94266.56;5011110;28;20267;-59
2023/04/15 09:00:28;;;;;;;1999.90;999.90;;;;;;;12.60;100.00;94265.56;5010610;28;20199;-59
2023/04/15 09:02:57;;;;;;;1999.90;999.90;;;;;;;12.68;100.00;94266.84;5010457;28;20270;-59
2023/04/15 09:05:23;;;;;;;1999.90;999.90;;;;;;;12.42;100.00;94267.38;5009903;28;20503;-59
2023/04/15 09:07:50;;;;;;;1999.90;999.90;;;;;;;12.49;100.00;94267.13;5010713;28;20186;-59
2023/04/15 09:10:16;;;;;;;1999.90;999.90;;;;;;;12.74;100.00;94265.06;5010489;28;20225;-59
2023/04/15 09:12:41;;;;;;;1999.90;999.90;;;;;;;12.82;100.00;94282.06;5010619;28;20506;-59
2023/04/15 09:15:09;;;;;;;1999.90;999.90;;;;;;;12.92;100.00;94278.16;5010490;28;20499;-59
2023/04/15 09:17:42;;;;;;;1999.90;999.90;;;;;;;13.04;100.00;94285.59;5009986;28;20198;-59
2023/04/15 09:20:09;;;;;;;1999.90;999.90;;;;;;;13.24;100.00;94283.28;5010155;28;20270;-57
2023/04/15 09:22:36;;;;;;;1999.90;999.90;;;;;;;13.05;100.00;94278.91;5010028;28;20229;-58
2023/04/15 09:25:01;;;;;;;1999.90;999.90;;;;;;;13.13;100.00;94285.66;5009012;28;20263;-58
2023/04/15 09:27:27;;;;;;;1999.90;999.90;;;;;;;13.22;100.00;94286.47;5010286;28;20187;-56
2023/04/15 09:29:53;;;;;;;1999.90;999.90;;;;;;;13.23;100.00;94300.97;5009832;28;20266;-59
2023/04/15 09:32:20;;;;;;;1999.90;999.90;;;;;;;13.19;100.00;94298.34;5009666;28;20179;-58
2023/04/15 09:34:46;;;;;;;1999.90;999.90;;;;;;;13.19;100.00;94294.84;5009977;28;20210;-59
2023/04/15 09:37:14;;;;;;;1999.90;999.90;;;;;;;13.08;100.00;94297.19;5009604;28;20274;-59
2023/04/15 09:39:51;;;;;;;1999.90;999.90;;;;;;;12.96;100.00;94300.72;5010055;28;20187;-58
2023/04/15 09:42:23;;;;;;;1999.90;999.90;;;;;;;12.90;100.00;94291.53;5009851;28;20198;-59
2023/04/15 09:44:48;;;;;;;1999.90;999.90;;;;;;;13.05;100.00;94295.34;5009898;28;20194;-58
2023/04/15 09:47:32;;;;;;;1999.90;999.90;;;;;;;13.13;100.00;94291.91;5009445;28;20279;-59
2023/04/15 09:49:58;;;;;;;1999.90;999.90;;;;;;;13.50;100.00;94290.16;5009826;28;20191;-58
2023/04/15 09:52:24;;;;;;;1999.90;999.90;;;;;;;13.49;100.00;94288.63;5009381;28;20199;-58
2023/04/15 09:54:52;;;;;;;1999.90;999.90;;;;;;;13.16;100.00;94295.72;5009372;28;20207;-57
2023/04/15 09:57:17;;;;;;;1999.90;999.90;;;;;;;13.16;100.00;94301.97;5007205;28;20190;-60
2023/04/15 09:59:43;;;;;;;1999.90;999.90;;;;;;;12.93;100.00;94302.38;5009785;28;20199;-58
2023/04/15 10:02:10;;;;;;;1999.90;999.90;;;;;;;12.78;100.00;94289.59;5009325;28;20195;-58
2023/04/15 10:04:39;;;;;;;1999.90;999.90;;;;;;;12.76;100.00;94303.00;5009143;28;20207;-59
2023/04/15 10:07:05;;;;;;;1999.90;999.90;;;;;;;12.62;100.00;94314.41;5009482;28;20199;-57
2023/04/15 10:09:32;;;;;;;1999.90;999.90;;;;;;;12.46;100.00;94307.13;5009068;28;20253;-60
2023/04/15 10:11:58;;;;;;;1999.90;999.90;;;;;;;12.28;100.00;94301.44;5008969;28;20191;-56
2023/04/15 10:14:27;;;;;;;1999.90;999.90;;;;;;;12.38;100.00;94299.56;5008835;28;20207;-58
2023/04/15 10:16:55;;;;;;;1999.90;999.90;;;;;;;12.45;100.00;94302.06;5008754;28;20265;-59
2023/04/15 10:19:25;;;;;;;1999.90;999.90;;;;;;;12.51;100.00;94303.84;5008809;28;20199;-56
2023/04/15 10:21:51;;;;;;;1999.90;999.90;;;;;;;12.56;100.00;94294.28;5008618;28;20191;-58
2023/04/15 10:24:16;;;;;;;1999.90;999.90;;;;;;;12.61;100.00;94299.22;5008492;28;20284;-59
2023/04/15 10:26:43;;;;;;;1999.90;999.90;;;;;;;12.44;100.00;94306.81;5008756;28;20283;-57
2023/04/15 10:29:09;;;;;;;1999.90;999.90;;;;;;;12.13;100.00;94308.59;5008744;28;20266;-57
2023/04/15 10:31:37;;;;;;;1999.90;999.90;;;;;;;12.18;100.00;94307.28;5008716;28;20195;-59
2023/04/15 10:34:05;;;;;;;1999.90;999.90;;;;;;;12.34;100.00;94312.59;5008580;28;20326;-58
2023/04/15 10:36:31;;;;;;;1999.90;999.90;;;;;;;12.48;100.00;94309.41;5008151;28;20311;-59
2023/04/15 10:38:56;;;;;;;1999.90;999.90;;;;;;;12.42;100.00;94311.19;5008913;28;20229;-58
2023/04/15 10:41:30;;;;;;;1999.90;999.90;;;;;;;12.40;100.00;94321.81;5008317;28;20191;-59
2023/04/15 10:44:00;;;;;;;1999.90;999.90;;;;;;;12.47;100.00;94313.38;5008532;28;20191;-59
2023/04/15 10:46:38;;;;;;;1999.90;999.90;;;;;;;12.49;100.00;94317.19;5008724;28;20244;-59
2023/04/15 10:49:24;;;;;;;1999.90;999.90;;;;;;;12.66;100.00;94315.06;5008979;28;20174;-59